Time;durP1;ratioP1;P1;durP2;ratioP2;P2;SDS_P1;SDS_P2;PMS_P1;PMS_P2;Temp;Humidity;BMP_temperature;BMP_pressure;BME280_temperature;BME280_humidity;BME280_pressure;Samples;Min_cycle;Max_cycle;Signal;HPM_P1;HPM_P2
2020/12/05 00:00:06;;;;;;;29.15;14.18;;;;;;;4.23;79.62;98948.73;1759156;80;21203;-74
2020/12/05 00:02:34;;;;;;;27.22;15.70;;;;;;;4.21;79.61;98952.87;1757251;81;21126;-73
2020/12/05 00:05:00;;;;;;;26.73;14.55;;;;;;;4.17;79.61;98943.63;1756389;81;21120;-73
2020/12/05 00:07:27;;;;;;;29.77;15.98;;;;;;;4.13;79.62;98943.63;1756233;81;21580;-73
2020/12/05 00:09:53;;;;;;;27.30;14.90;;;;;;;4.11;79.60;98950.89;1756160;81;21593;-73
2020/12/05 00:12:19;;;;;;;26.20;13.80;;;;;;;4.09;79.59;98951.53;1756223;80;21147;-73
2020/12/05 00:14:46;;;;;;;26.15;14.53;;;;;;;4.09;79.58;98949.38;1756237;81;21134;-74
2020/12/05 00:17:12;;;;;;;25.55;13.30;;;;;;;4.07;79.58;98952.20;1756319;81;21474;-74
2020/12/05 00:19:38;;;;;;;23.45;12.70;;;;;;;4.03;79.57;98939.02;1756185;81;21174;-74
2020/12/05 00:22:04;;;;;;;30.05;14.33;;;;;;;4.02;79.57;98943.45;1756368;80;21111;-74
2020/12/05 00:24:31;;;;;;;22.67;13.58;;;;;;;4.01;79.56;98939.68;1756122;81;21560;-73
2020/12/05 00:26:57;;;;;;;21.17;12.75;;;;;;;4.00;79.56;98941.98;1756170;80;21151;-73
2020/12/05 00:29:23;;;;;;;22.55;12.85;;;;;;;4.01;79.56;98942.32;1756261;81;21123;-73
2020/12/05 00:31:53;;;;;;;19.95;12.03;;;;;;;4.04;79.54;98934.08;1756263;81;21576;-74
2020/12/05 00:34:20;;;;;;;18.32;11.18;;;;;;;4.09;79.53;98934.39;1756354;81;21107;-73
2020/12/05 00:36:46;;;;;;;22.62;11.43;;;;;;;4.17;79.49;98926.48;1756204;81;21196;-73
2020/12/05 00:39:12;;;;;;;19.73;10.95;;;;;;;4.21;79.45;98922.53;1756169;81;21604;-74
2020/12/05 00:41:39;;;;;;;18.73;10.90;;;;;;;4.30;79.42;98925.97;1756340;81;21111;-73
2020/12/05 00:44:05;;;;;;;21.52;11.08;;;;;;;4.41;79.37;98915.91;1756468;81;21107;-73
2020/12/05 00:46:32;;;;;;;17.30;11.05;;;;;;;4.45;79.30;98914.58;1756412;81;21116;-73
2020/12/05 00:48:58;;;;;;;19.87;12.40;;;;;;;4.52;79.27;98918.20;1756342;81;21264;-73
2020/12/05 00:51:24;;;;;;;19.27;11.20;;;;;;;4.57;79.18;98916.39;1756456;81;21131;-74
2020/12/05 00:53:51;;;;;;;15.03;9.85;;;;;;;4.58;79.12;98907.95;1756314;81;21142;-73
2020/12/05 00:56:21;;;;;;;17.90;10.20;;;;;;;4.61;79.05;98906.31;1756392;81;21115;-73
2020/12/05 00:58:47;;;;;;;15.88;9.05;;;;;;;4.57;79.02;98882.56;1756498;81;24634;-74
2020/12/05 01:01:14;;;;;;;16.87;10.28;;;;;;;4.57;79.02;98882.56;1756474;81;21198;-74
2020/12/05 01:03:40;;;;;;;20.62;10.43;;;;;;;4.69;78.83;98897.03;1756260;81;21159;-74
2020/12/05 01:06:14;;;;;;;20.23;10.53;;;;;;;4.67;78.75;98902.99;1756404;81;21120;-74
2020/12/05 01:08:42;;;;;;;20.50;11.97;;;;;;;4.70;78.67;98909.25;1756260;81;21624;-74
2020/12/05 01:11:18;;;;;;;24.37;12.05;;;;;;;4.69;78.61;98912.88;1727001;81;21130;-74
2020/12/05 01:13:48;;;;;;;18.40;10.30;;;;;;;4.67;78.55;98906.95;1756414;80;21239;-74
2020/12/05 01:16:15;;;;;;;16.45;9.80;;;;;;;4.67;78.49;98906.95;1756362;81;21147;-73
2020/12/05 01:18:41;;;;;;;16.73;9.30;;;;;;;4.69;78.44;98906.27;1756457;81;21195;-73
2020/12/05 01:21:15;;;;;;;15.53;9.50;;;;;;;4.73;78.38;98905.77;1756353;80;21131;-74
2020/12/05 01:23:41;;;;;;;19.27;10.15;;;;;;;4.75;78.28;98897.70;1726746;81;21553;-74
2020/12/05 01:26:07;;;;;;;19.27;11.18;;;;;;;4.73;78.19;98895.70;1756322;81;21170;-74
2020/12/05 01:28:34;;;;;;;19.42;11.35;;;;;;;4.72;78.12;98904.61;1756281;81;21136;-74
2020/12/05 01:31:01;;;;;;;19.65;11.08;;;;;;;4.68;78.06;98900.69;1756297;81;21150;-74
2020/12/05 01:33:27;;;;;;;20.62;10.13;;;;;;;4.69;77.99;98904.95;1756340;81;21099;-74
2020/12/05 01:35:53;;;;;;;17.25;10.08;;;;;;;4.73;77.91;98893.06;1756488;81;21131;-73
2020/12/05 01:38:19;;;;;;;19.60;9.53;;;;;;;4.79;77.84;98884.45;1756239;81;21179;-74
2020/12/05 01:40:53;;;;;;;15.32;9.38;;;;;;;4.83;77.74;98896.33;1756336;81;21139;-74
2020/12/05 01:43:20;;;;;;;16.27;9.10;;;;;;;4.84;77.66;98908.55;1756470;81;21563;-74
2020/12/05 01:45:47;;;;;;;14.53;9.58;;;;;;;4.86;77.60;98910.02;1756308;81;21539;-74
2020/12/05 01:48:16;;;;;;;17.55;9.78;;;;;;;4.84;77.56;98912.02;1756449;81;21119;-74
2020/12/05 01:50:43;;;;;;;16.40;9.25;;;;;;;4.85;77.47;98903.11;1756403;81;21216;-74
2020/12/05 01:53:10;;;;;;;15.88;9.90;;;;;;;4.87;77.40;98906.88;1756228;81;21175;-73
2020/12/05 01:55:36;;;;;;;16.87;9.48;;;;;;;4.85;77.35;98905.75;1756346;81;21139;-74
2020/12/05 01:58:03;;;;;;;13.18;8.68;;;;;;;4.87;77.27;98905.56;1756422;81;21135;-74
2020/12/05 02:00:29;;;;;;;16.27;8.90;;;;;;;4.86;77.26;98910.51;1756272;81;21122;-74
2020/12/05 02:02:55;;;;;;;12.78;7.20;;;;;;;4.83;77.22;98918.78;1756256;81;21513;-74
2020/12/05 02:05:49;;;;;;;14.28;8.83;;;;;;;4.81;77.19;98914.17;1756291;81;21162;-74
2020/12/05 02:08:20;;;;;;;17.40;9.28;;;;;;;4.84;77.17;98905.41;1756313;81;21175;-74
2020/12/05 02:10:49;;;;;;;15.70;8.78;;;;;;;4.85;77.14;98908.89;1756498;81;21103;-74
2020/12/05 02:13:37;;;;;;;14.45;8.58;;;;;;;4.84;77.10;98909.88;1756296;81;21541;-74
2020/12/05 02:16:04;;;;;;;14.03;9.13;;;;;;;4.85;77.05;98904.92;1756401;80;21199;-74
2020/12/05 02:18:30;;;;;;;16.90;9.20;;;;;;;4.87;77.00;98905.56;1726509;81;21187;-74
2020/12/05 02:21:00;;;;;;;16.55;8.95;;;;;;;4.88;76.95;98896.66;1756400;80;21103;-74
2020/12/05 02:23:27;;;;;;;15.18;8.15;;;;;;;4.88;76.90;98893.52;1756438;81;21540;-74
2020/12/05 02:25:58;;;;;;;13.85;8.63;;;;;;;4.97;76.79;98890.33;1756278;81;21573;-74
2020/12/05 02:28:24;;;;;;;12.70;8.13;;;;;;;5.04;76.71;98886.02;1756388;81;22129;-74
2020/12/05 02:30:50;;;;;;;13.60;8.53;;;;;;;5.05;76.64;98887.67;1756206;81;21581;-74
2020/12/05 02:33:17;;;;;;;13.83;8.33;;;;;;;5.03;76.57;98894.95;1756279;81;21189;-74
2020/12/05 02:35:44;;;;;;;15.93;8.38;;;;;;;5.04;76.53;98888.66;1756310;81;21115;-74
2020/12/05 02:38:36;;;;;;;14.10;8.80;;;;;;;5.06;76.50;98889.33;1756269;81;21178;-74
2020/12/05 02:41:02;;;;;;;14.30;8.15;;;;;;;5.07;76.44;98894.91;1756383;81;21552;-74
2020/12/05 02:43:29;;;;;;;16.52;8.65;;;;;;;5.06;76.37;98893.78;1756238;81;21142;-74
2020/12/05 02:45:55;;;;;;;15.80;8.33;;;;;;;5.05;76.33;98895.59;1756280;81;21147;-74
2020/12/05 02:48:21;;;;;;;12.75;8.18;;;;;;;5.09;76.29;98895.58;1756338;81;21123;-74
2020/12/05 02:50:47;;;;;;;12.60;7.42;;;;;;;5.06;76.24;98894.61;1756336;81;21135;-74
2020/12/05 02:53:14;;;;;;;12.98;8.20;;;;;;;5.06;76.25;98893.78;1756160;81;21205;-74
2020/12/05 02:55:40;;;;;;;12.70;9.05;;;;;;;5.04;76.24;98893.94;1756312;81;21115;-74
2020/12/05 02:58:06;;;;;;;13.40;8.25;;;;;;;4.99;76.21;98887.05;1756340;81;21111;-74
2020/12/05 03:00:33;;;;;;;21.52;9.68;;;;;;;4.99;76.22;98891.00;1756148;81;21627;-74
2020/12/05 03:02:59;;;;;;;14.87;9.48;;;;;;;4.97;76.18;98896.45;1757119;80;21108;-74
2020/12/05 03:05:25;;;;;;;14.10;9.15;;;;;;;4.97;76.16;98892.98;1759306;80;21146;-74
2020/12/05 03:07:51;;;;;;;16.27;8.80;;;;;;;4.95;76.11;98895.81;1759137;81;21155;-74
2020/12/05 03:10:18;;;;;;;15.83;8.60;;;;;;;4.94;76.10;98901.25;1759345;81;21175;-74
2020/12/05 03:12:44;;;;;;;16.82;9.05;;;;;;;4.90;76.07;98894.66;1759263;81;21552;-74
2020/12/05 03:15:10;;;;;;;13.85;9.58;;;;;;;4.89;76.07;98898.31;1759182;81;21628;-74
2020/12/05 03:17:36;;;;;;;13.98;9.43;;;;;;;4.88;76.07;98895.34;1759229;81;21584;-74
2020/12/05 03:20:04;;;;;;;15.32;9.48;;;;;;;4.87;76.04;98897.15;1759217;81;21123;-74
2020/12/05 03:22:30;;;;;;;15.68;9.80;;;;;;;4.85;76.05;98902.28;1759107;80;21127;-73
2020/12/05 03:24:56;;;;;;;18.05;10.38;;;;;;;4.82;76.05;98890.74;1759257;81;21166;-74
2020/12/05 03:27:22;;;;;;;15.43;9.83;;;;;;;4.81;76.07;98891.73;1759356;81;21135;-74
2020/12/05 03:29:51;;;;;;;17.57;10.35;;;;;;;4.80;76.10;98894.86;1759191;81;22041;-74
2020/12/05 03:32:21;;;;;;;14.53;9.13;;;;;;;4.80;76.11;98901.95;1759279;81;21155;-74
2020/12/05 03:34:47;;;;;;;14.03;9.63;;;;;;;4.80;76.11;98899.31;1759194;81;21156;-74
2020/12/05 03:37:13;;;;;;;13.80;8.78;;;;;;;4.79;76.13;98898.48;1759126;81;21135;-74
2020/12/05 03:39:40;;;;;;;13.32;8.73;;;;;;;4.77;76.14;98900.48;1759267;81;21123;-74
2020/12/05 03:42:06;;;;;;;13.88;8.80;;;;;;;4.78;76.18;98909.23;1759393;81;21159;-74
2020/12/05 03:44:32;;;;;;;14.33;8.93;;;;;;;4.79;76.21;98909.54;1759199;80;21131;-74
2020/12/05 03:46:58;;;;;;;12.95;9.05;;;;;;;4.84;76.20;98915.16;1759282;81;21175;-74
2020/12/05 03:52:15;;;;;;;17.32;9.80;;;;;;;4.94;76.22;98918.42;1852408;77;22321;-74
2020/12/05 03:54:42;;;;;;;15.95;8.73;;;;;;;4.93;76.22;98929.47;1824654;78;21124;-74
2020/12/05 03:57:09;;;;;;;12.10;8.08;;;;;;;4.94;76.22;98919.73;1824500;78;21151;-74
2020/12/05 03:59:35;;;;;;;16.90;9.65;;;;;;;4.99;76.25;98921.38;1824550;78;21006;-74
2020/12/05 04:02:01;;;;;;;17.90;9.33;;;;;;;4.99;76.27;98924.03;1824378;78;21104;-74
2020/12/05 04:04:27;;;;;;;15.10;9.45;;;;;;;4.98;76.27;98922.37;1824499;78;21187;-74
2020/12/05 04:06:54;;;;;;;17.23;8.95;;;;;;;5.01;76.31;98924.67;1824182;78;21112;-74
2020/12/05 04:09:20;;;;;;;15.35;10.53;;;;;;;5.04;76.32;98913.26;1824505;78;21313;-74
2020/12/05 04:11:46;;;;;;;15.32;9.80;;;;;;;5.06;76.34;98906.50;1824453;78;21155;-74
2020/12/05 04:14:12;;;;;;;12.85;7.53;;;;;;;5.09;76.33;98907.47;1824320;78;21588;-74
2020/12/05 04:16:39;;;;;;;12.35;8.10;;;;;;;5.10;76.34;98914.41;1824608;78;21679;-74
2020/12/05 04:19:05;;;;;;;13.43;8.13;;;;;;;5.16;76.35;98913.72;1824366;78;21483;-74
2020/12/05 04:21:32;;;;;;;13.40;7.92;;;;;;;5.22;76.34;98923.59;1811357;78;21200;-74
2020/12/05 04:23:58;;;;;;;13.98;8.08;;;;;;;5.26;76.35;98922.25;1783072;80;21171;-74
2020/12/05 04:26:24;;;;;;;17.32;11.22;;;;;;;5.34;76.35;98912.98;1782874;80;21171;-74
2020/12/05 04:28:50;;;;;;;14.60;9.40;;;;;;;5.41;76.33;98908.64;1783013;80;21144;-74
2020/12/05 04:31:17;;;;;;;14.00;8.63;;;;;;;5.45;76.31;98909.91;1783024;80;21168;-74
2020/12/05 04:33:43;;;;;;;12.10;8.75;;;;;;;5.43;76.31;98903.99;1783390;80;21864;-74
2020/12/05 04:36:09;;;;;;;13.88;9.10;;;;;;;5.41;76.32;98906.00;1782695;80;21164;-74
2020/12/05 04:38:36;;;;;;;12.82;8.10;;;;;;;5.41;76.29;98913.10;1783241;80;21140;-74
2020/12/05 04:41:02;;;;;;;13.62;8.13;;;;;;;5.40;76.30;98908.80;1783020;80;21131;-74
2020/12/05 04:43:28;;;;;;;15.93;8.80;;;;;;;5.42;76.31;98919.52;1783015;80;21599;-74
2020/12/05 04:45:55;;;;;;;13.70;9.20;;;;;;;5.42;76.33;98927.45;1782833;80;21636;-75
2020/12/05 04:48:22;;;;;;;21.05;12.55;;;;;;;5.43;76.33;98934.39;1752896;80;21589;-74
2020/12/05 04:50:48;;;;;;;23.80;15.25;;;;;;;5.42;76.34;98930.09;1783133;80;21145;-74
2020/12/05 04:53:18;;;;;;;17.77;10.25;;;;;;;5.39;76.38;98919.87;1735076;80;21879;-74
2020/12/05 04:55:44;;;;;;;14.43;9.65;;;;;;;5.37;76.38;98913.95;1783478;79;21120;-74
2020/12/05 04:58:20;;;;;;;16.05;9.50;;;;;;;5.35;76.40;98906.67;1783080;80;21204;-74
2020/12/05 05:00:49;;;;;;;15.05;9.30;;;;;;;5.32;76.42;98904.37;1782947;80;21195;-74
2020/12/05 05:03:16;;;;;;;9.13;5.70;;;;;;;5.29;76.41;98898.61;1782623;80;21117;-74
2020/12/05 05:05:42;;;;;;;12.73;8.18;;;;;;;5.29;76.45;98903.41;1782362;80;21156;-75
2020/12/05 05:08:12;;;;;;;14.68;8.95;;;;;;;5.27;76.47;98908.55;1782698;80;21144;-74
2020/12/05 05:10:36;;;;;;;14.60;8.85;;;;;;;5.23;76.49;98921.78;1781700;80;21562;-74
2020/12/05 05:13:19;;;;;;;13.18;8.70;;;;;;;5.20;76.54;98932.69;1782578;80;21590;-75
2020/12/05 05:15:45;;;;;;;15.72;9.28;;;;;;;5.23;76.57;98930.53;1782521;80;21320;-74
2020/12/05 05:18:13;;;;;;;16.02;8.75;;;;;;;5.24;76.61;98922.91;1782509;80;21181;-74
2020/12/05 05:20:45;;;;;;;16.23;9.23;;;;;;;5.24;76.66;98922.91;1782487;80;21183;-74
2020/12/05 05:23:17;;;;;;;14.53;9.70;;;;;;;5.30;76.70;98916.95;1782455;80;21159;-75
2020/12/05 05:26:01;;;;;;;15.63;9.30;;;;;;;5.41;76.71;98907.32;1782612;80;21078;-75
2020/12/05 05:28:36;;;;;;;13.45;9.23;;;;;;;5.46;76.72;98910.25;1782538;80;21155;-74
2020/12/05 06:26:45;;;;;;;19.67;10.20;;;;;;;6.62;77.35;98921.94;1778021;79;22522;-73
2020/12/05 06:29:12;;;;;;;16.62;9.85;;;;;;;6.58;77.39;98932.59;1751650;81;21077;-72
2020/12/05 06:31:46;;;;;;;16.40;10.05;;;;;;;6.59;77.39;98932.40;1751307;80;22062;-72
2020/12/05 06:34:43;;;;;;;14.20;9.55;;;;;;;6.64;77.39;98932.70;1751422;82;21501;-73
2020/12/05 06:37:11;;;;;;;17.07;9.53;;;;;;;6.70;77.41;98937.27;1751479;81;21160;-72
2020/12/05 06:39:38;;;;;;;15.23;9.78;;;;;;;6.77;77.41;98932.05;1751504;81;21600;-73
2020/12/05 06:42:06;;;;;;;14.58;9.58;;;;;;;6.85;77.43;98939.93;1751580;81;21167;-72
2020/12/05 06:44:36;;;;;;;14.63;9.93;;;;;;;6.83;77.44;98937.45;1720562;82;21218;-75
2020/12/05 06:47:06;;;;;;;15.88;10.20;;;;;;;6.83;77.45;98939.27;1751665;82;21029;-75
2020/12/05 06:49:41;;;;;;;17.05;11.73;;;;;;;6.83;77.46;98940.59;1751327;82;21128;-74
2020/12/05 06:52:27;;;;;;;17.70;9.88;;;;;;;6.83;77.49;98941.92;1751488;82;21640;-75
2020/12/05 06:55:05;;;;;;;15.32;9.75;;;;;;;6.90;77.48;98942.84;1751511;82;21108;-75
2020/12/05 06:57:33;;;;;;;20.82;10.38;;;;;;;6.97;77.47;98941.10;1751471;82;22071;-75
2020/12/05 07:00:20;;;;;;;15.85;10.10;;;;;;;6.99;77.46;98945.73;1751523;80;21160;-75
2020/12/05 07:03:08;;;;;;;22.87;12.95;;;;;;;7.04;77.46;98953.95;1751425;82;21612;-75
2020/12/05 07:05:44;;;;;;;22.25;12.25;;;;;;;7.06;77.47;98970.50;1751440;81;21143;-75
2020/12/05 07:08:34;;;;;;;28.23;17.45;;;;;;;7.07;77.48;98965.53;1751519;81;21552;-75
2020/12/05 07:11:04;;;;;;;;;;;;;;;7.08;77.45;98967.16;1753936;82;21541;-74
2020/12/05 07:13:43;;;;;;;32.05;15.85;;;;;;;7.13;77.45;98971.42;1751502;82;20288;-74
2020/12/05 07:16:36;;;;;;;35.45;17.52;;;;;;;7.16;77.44;98992.77;1751465;82;21128;-74
2020/12/05 07:19:02;;;;;;;20.25;11.70;;;;;;;7.20;77.40;98998.84;1651706;86;21159;-74
2020/12/05 07:21:29;;;;;;;47.83;25.12;;;;;;;7.23;77.40;98986.55;1651819;86;21211;-74
2020/12/05 07:23:56;;;;;;;24.70;15.30;;;;;;;7.25;77.38;98992.48;1704225;84;21187;-74
2020/12/05 07:26:22;;;;;;;32.15;16.73;;;;;;;7.26;77.34;99002.09;1704253;84;21100;-74
2020/12/05 07:28:51;;;;;;;570.92;266.38;;;;;;;7.27;77.33;99006.39;1704141;84;21163;-74
2020/12/05 07:31:18;;;;;;;376.60;176.53;;;;;;;7.28;77.31;99013.31;1704343;84;21162;-74
2020/12/05 07:33:44;;;;;;;66.77;34.73;;;;;;;7.30;77.30;99024.58;1704277;84;21152;-74
2020/12/05 07:36:12;;;;;;;56.08;30.55;;;;;;;7.28;77.28;99031.09;1704159;84;21175;-74
2020/12/05 07:38:40;;;;;;;58.87;39.45;;;;;;;7.29;77.26;99044.64;1703807;84;21158;-74
2020/12/05 07:41:18;;;;;;;47.93;34.05;;;;;;;7.32;77.25;99049.08;1703806;84;21190;-74
2020/12/05 07:43:45;;;;;;;43.83;32.48;;;;;;;7.31;77.20;99056.73;1703810;84;21182;-74
2020/12/05 07:46:12;;;;;;;49.58;25.72;;;;;;;7.36;77.20;99065.45;1703706;84;21166;-74
2020/12/05 07:48:39;;;;;;;54.93;21.82;;;;;;;7.40;77.15;99070.22;1703864;84;21223;-74
2020/12/05 07:51:15;;;;;;;47.38;21.00;;;;;;;7.41;77.11;99067.89;1703564;84;21182;-74
2020/12/05 07:53:42;;;;;;;40.55;20.72;;;;;;;7.40;77.04;99067.56;1676792;85;21139;-75
2020/12/05 07:56:21;;;;;;;30.82;16.05;;;;;;;7.38;77.03;99064.78;1703734;84;21647;-75
2020/12/05 07:58:55;;;;;;;30.35;13.85;;;;;;;7.38;76.98;99064.28;1703086;84;21616;-75
2020/12/05 08:01:59;;;;;;;38.80;20.35;;;;;;;7.37;76.96;99062.63;1703708;84;21280;-75
2020/12/05 08:04:54;;;;;;;39.03;20.25;;;;;;;7.37;76.94;99072.41;1703616;84;21627;-75
2020/12/05 08:07:37;;;;;;;169.30;75.62;;;;;;;7.37;76.90;99073.23;1703221;84;21608;-75
2020/12/05 08:10:07;;;;;;;135.05;58.45;;;;;;;7.39;76.89;99084.47;1703855;84;21573;-75
2020/12/05 08:12:46;;;;;;;;;;;;;;;7.39;76.87;99091.10;1706225;84;21603;-75
2020/12/05 08:15:14;;;;;;;67.22;35.13;;;;;;;7.40;76.85;99084.80;1703664;84;21443;-75
2020/12/05 08:17:40;;;;;;;65.62;31.05;;;;;;;7.39;76.83;99089.78;1704148;84;21580;-75
2020/12/05 08:20:06;;;;;;;50.70;25.43;;;;;;;7.41;76.81;99094.41;1705131;84;21230;-75
2020/12/05 08:22:34;;;;;;;32.73;19.23;;;;;;;7.43;76.78;99095.05;1705256;82;21060;-75
2020/12/05 08:25:00;;;;;;;25.25;15.83;;;;;;;7.46;76.78;99102.63;1679006;84;21561;-75
2020/12/05 08:27:26;;;;;;;39.88;19.85;;;;;;;7.48;76.73;99101.97;1705414;84;21198;-75
2020/12/05 08:29:52;;;;;;;34.30;21.00;;;;;;;7.52;76.70;99091.81;1705125;84;21170;-75
2020/12/05 08:32:22;;;;;;;42.53;25.92;;;;;;;7.54;76.67;99089.79;1705291;84;21624;-75
2020/12/05 08:34:49;;;;;;;54.35;25.37;;;;;;;7.56;76.65;99093.59;1705265;84;21162;-75
2020/12/05 08:37:25;;;;;;;34.03;18.20;;;;;;;7.57;76.59;99089.42;1705064;84;21154;-75
2020/12/05 08:39:53;;;;;;;21.65;13.58;;;;;;;7.61;76.56;99096.51;1705292;84;21520;-75
2020/12/05 08:42:19;;;;;;;21.50;14.23;;;;;;;7.66;76.50;99103.43;1705130;84;21182;-75
2020/12/05 08:44:45;;;;;;;21.60;13.45;;;;;;;7.69;76.46;99118.98;1705129;84;21564;-75
2020/12/05 08:47:11;;;;;;;21.17;14.70;;;;;;;7.75;76.44;99126.20;1705152;84;21211;-75
2020/12/05 08:49:42;;;;;;;36.73;23.18;;;;;;;7.75;76.41;99119.07;1705052;84;21131;-75
2020/12/05 08:52:10;;;;;;;31.95;19.70;;;;;;;7.78;76.38;99125.83;1705047;84;22292;-75
2020/12/05 08:54:51;;;;;;;26.93;15.88;;;;;;;7.77;76.36;99126.86;1704916;84;21190;-75
2020/12/05 08:57:18;;;;;;;29.77;18.48;;;;;;;7.76;76.31;99119.89;1705314;84;21230;-74
2020/12/05 08:59:44;;;;;;;82.78;41.60;;;;;;;7.77;76.27;99134.32;1705239;84;21202;-74
2020/12/05 09:02:12;;;;;;;55.08;33.13;;;;;;;7.77;76.26;99120.23;1705281;84;21170;-74
2020/12/05 09:04:39;;;;;;;31.12;20.02;;;;;;;7.78;76.20;99123.17;1705101;84;21207;-74
2020/12/05 09:07:16;;;;;;;38.08;23.07;;;;;;;7.81;76.18;99109.56;1705114;84;21178;-74
2020/12/05 09:09:46;;;;;;;25.80;16.77;;;;;;;7.85;76.12;99102.86;1705366;84;21075;-74
2020/12/05 09:12:17;;;;;;;57.67;34.25;;;;;;;7.86;76.05;99103.19;1704849;83;21207;-74
2020/12/05 09:14:47;;;;;;;26.82;15.72;;;;;;;7.88;75.98;99103.31;1705461;84;21131;-75
2020/12/05 09:17:24;;;;;;;24.10;14.23;;;;;;;7.89;75.95;99096.18;1704913;84;21227;-74
2020/12/05 09:19:58;;;;;;;24.05;14.55;;;;;;;7.90;75.88;99105.80;1704835;84;21206;-74
2020/12/05 09:22:32;;;;;;;25.30;12.65;;;;;;;7.95;75.84;99114.05;1701934;82;21155;-75
2020/12/05 09:24:58;;;;;;;23.83;13.48;;;;;;;7.96;75.78;99126.28;1705167;84;21560;-75
2020/12/05 09:27:38;;;;;;;23.65;13.32;;;;;;;8.01;75.76;99134.53;1705314;84;21182;-74
2020/12/05 09:30:11;;;;;;;24.10;14.50;;;;;;;8.04;75.71;99138.14;1705260;84;21207;-74
2020/12/05 09:32:45;;;;;;;29.25;15.23;;;;;;;8.07;75.69;99144.41;1705224;84;21615;-74
2020/12/05 09:35:13;;;;;;;25.77;13.80;;;;;;;8.10;75.64;99165.28;1705108;84;21563;-75
2020/12/05 09:37:40;;;;;;;23.73;13.88;;;;;;;8.15;75.64;99175.36;1705211;84;21143;-75
2020/12/05 09:40:07;;;;;;;43.08;22.98;;;;;;;8.15;75.63;99171.38;1705468;84;21238;-75
2020/12/05 09:42:34;;;;;;;22.85;13.22;;;;;;;8.18;75.63;99161.70;1705037;84;21295;-75
2020/12/05 09:45:00;;;;;;;27.00;15.60;;;;;;;8.19;75.59;99150.91;1705201;84;21167;-74
2020/12/05 09:47:26;;;;;;;32.40;19.87;;;;;;;8.21;75.55;99142.73;1705125;84;21198;-74
2020/12/05 09:49:52;;;;;;;34.75;26.00;;;;;;;8.25;75.49;99144.84;1705097;84;21659;-74
2020/12/05 09:52:19;;;;;;;27.30;21.15;;;;;;;8.28;75.44;99139.19;1705116;84;21139;-75
2020/12/05 09:54:46;;;;;;;43.87;20.52;;;;;;;8.32;75.40;99137.81;1705153;84;21244;-75
2020/12/05 09:57:12;;;;;;;39.27;19.57;;;;;;;8.35;75.31;99136.11;1705085;84;21187;-75
2020/12/05 09:59:38;;;;;;;47.50;21.68;;;;;;;8.36;75.27;99130.30;1705109;84;21159;-75
2020/12/05 10:02:05;;;;;;;23.35;14.18;;;;;;;8.35;75.22;99128.14;1705242;84;21655;-75
2020/12/05 10:04:31;;;;;;;32.38;17.90;;;;;;;8.33;75.17;99126.19;1678786;84;21146;-75
2020/12/05 10:06:58;;;;;;;30.40;17.15;;;;;;;8.27;75.07;99124.23;1705167;84;21259;-75
2020/12/05 10:09:24;;;;;;;24.02;12.95;;;;;;;8.25;75.05;99132.90;1705135;84;21166;-75
2020/12/05 10:11:50;;;;;;;25.40;13.28;;;;;;;8.25;75.03;99135.55;1705198;84;21167;-75
2020/12/05 10:14:16;;;;;;;74.22;39.10;;;;;;;8.26;75.03;99143.84;1705150;84;21226;-75
2020/12/05 10:16:43;;;;;;;75.78;40.92;;;;;;;8.31;74.97;99157.41;1705018;84;21115;-75
2020/12/05 10:19:09;;;;;;;101.10;52.60;;;;;;;8.33;74.91;99154.58;1704103;84;21200;-75
2020/12/05 10:21:35;;;;;;;272.07;125.25;;;;;;;8.36;74.88;99165.66;1703370;84;21147;-75
2020/12/05 10:24:01;;;;;;;165.35;72.82;;;;;;;8.39;74.85;99177.23;1703679;82;21168;-75
2020/12/05 10:26:28;;;;;;;81.25;39.13;;;;;;;8.44;74.83;99185.98;1703522;84;21640;-75
2020/12/05 10:28:54;;;;;;;218.27;103.62;;;;;;;8.49;74.76;99190.22;1703620;84;21187;-75
2020/12/05 10:31:20;;;;;;;158.07;67.62;;;;;;;8.53;74.74;99208.27;1703707;84;21197;-75
2020/12/05 10:33:46;;;;;;;127.95;51.92;;;;;;;8.59;74.70;99224.45;1703345;84;21213;-75
2020/12/05 10:36:21;;;;;;;113.17;49.75;;;;;;;8.65;74.67;99233.04;1703683;84;21592;-75
2020/12/05 10:38:48;;;;;;;106.07;49.18;;;;;;;8.70;74.64;99236.77;1703373;84;21167;-74
2020/12/05 10:41:14;;;;;;;38.50;18.52;;;;;;;8.76;74.59;99251.17;1703820;84;21460;-75
2020/12/05 10:43:41;;;;;;;45.95;23.45;;;;;;;8.80;74.56;99247.93;1703483;84;21202;-74
2020/12/05 10:46:08;;;;;;;64.67;31.87;;;;;;;8.85;74.50;99255.36;1703633;84;21186;-74
2020/12/05 10:48:34;;;;;;;67.92;31.95;;;;;;;8.87;74.45;99251.49;1703551;84;21147;-75
2020/12/05 10:51:01;;;;;;;28.45;15.85;;;;;;;8.92;74.39;99253.09;1703537;84;21147;-75
2020/12/05 10:53:27;;;;;;;26.40;14.80;;;;;;;8.99;74.35;99257.16;1703809;84;21655;-75
2020/12/05 10:55:53;;;;;;;26.12;14.00;;;;;;;9.06;74.30;99258.05;1703475;84;21557;-75
2020/12/05 10:58:20;;;;;;;33.23;18.35;;;;;;;9.15;74.21;99263.56;1703502;84;21142;-75
2020/12/05 11:00:50;;;;;;;48.20;24.40;;;;;;;9.24;74.09;99258.45;1703552;84;21207;-75
2020/12/05 11:03:16;;;;;;;24.10;14.30;;;;;;;9.32;74.01;99270.28;1703692;84;21243;-75
2020/12/05 11:05:42;;;;;;;17.77;12.20;;;;;;;9.40;73.95;99280.81;1703474;84;21163;-75
2020/12/05 11:08:08;;;;;;;22.25;13.25;;;;;;;9.48;73.91;99276.70;1703725;84;22265;-75
2020/12/05 11:10:35;;;;;;;24.67;14.33;;;;;;;9.56;73.80;99294.38;1703655;84;21210;-75
2020/12/05 11:13:01;;;;;;;21.95;13.35;;;;;;;9.63;73.73;99305.09;1703634;84;21179;-75
2020/12/05 11:15:28;;;;;;;19.05;13.08;;;;;;;9.68;73.66;99313.31;1703979;84;21296;-75
2020/12/05 11:17:54;;;;;;;19.82;12.63;;;;;;;9.72;73.59;99317.24;1703381;84;21147;-75
2020/12/05 11:20:22;;;;;;;22.37;13.53;;;;;;;9.75;73.49;99317.69;1703661;84;21246;-75
2020/12/05 11:22:49;;;;;;;30.10;20.97;;;;;;;9.79;73.41;99315.47;1703558;82;21206;-75
2020/12/05 11:25:15;;;;;;;24.40;15.53;;;;;;;9.82;73.30;99320.41;1703485;84;21178;-76
2020/12/05 11:27:42;;;;;;;464.30;172.62;;;;;;;9.86;73.27;99328.33;1703636;84;21123;-76
2020/12/05 11:30:08;;;;;;;46.58;20.08;;;;;;;9.91;73.22;99335.25;1703752;84;21521;-75
2020/12/05 11:32:37;;;;;;;168.40;53.23;;;;;;;9.95;73.17;99339.18;1703693;84;21211;-76
2020/12/05 11:35:04;;;;;;;50.38;21.25;;;;;;;9.99;73.13;99337.78;1703264;84;21529;-75
2020/12/05 11:37:30;;;;;;;36.75;20.48;;;;;;;10.02;73.04;99345.39;1703787;84;21206;-75
2020/12/05 11:39:57;;;;;;;32.38;17.32;;;;;;;10.05;72.98;99346.33;1703601;84;21188;-75
2020/12/05 11:42:23;;;;;;;76.95;38.20;;;;;;;10.07;72.93;99349.61;1703956;84;21521;-75
2020/12/05 11:44:49;;;;;;;24.87;14.68;;;;;;;10.09;72.89;99341.44;1703782;84;21255;-76
2020/12/05 11:47:16;;;;;;;25.48;13.65;;;;;;;10.08;72.84;99351.27;1703661;84;21197;-76
2020/12/05 11:49:42;;;;;;;91.20;29.07;;;;;;;10.07;72.79;99350.12;1703831;84;21250;-75
2020/12/05 11:52:09;;;;;;;202.45;59.03;;;;;;;10.06;72.74;99350.66;1703637;84;21218;-76
2020/12/05 11:54:35;;;;;;;106.40;40.95;;;;;;;10.06;72.71;99353.82;1703742;84;21178;-76
2020/12/05 11:57:01;;;;;;;23.47;14.33;;;;;;;10.04;72.65;99350.00;1703582;84;22160;-75
2020/12/05 11:59:28;;;;;;;24.87;15.13;;;;;;;10.04;72.60;99356.66;1703663;84;21639;-76
2020/12/05 12:01:54;;;;;;;32.35;18.00;;;;;;;10.06;72.55;99351.98;1703530;84;21171;-76
2020/12/05 12:04:20;;;;;;;27.98;14.87;;;;;;;10.08;72.49;99363.26;1703625;84;21127;-76
2020/12/05 12:06:48;;;;;;;29.92;15.95;;;;;;;10.11;72.47;99362.88;1703647;84;21235;-76
2020/12/05 12:09:14;;;;;;;24.70;13.68;;;;;;;10.18;72.42;99367.78;1703836;84;21193;-76
2020/12/05 12:11:40;;;;;;;25.97;13.75;;;;;;;10.24;72.41;99364.33;1703889;84;21170;-76
2020/12/05 12:14:07;;;;;;;37.33;21.40;;;;;;;10.30;72.29;99363.59;1703549;84;21158;-76
2020/12/05 12:16:33;;;;;;;26.50;16.55;;;;;;;10.35;72.27;99373.14;1703573;84;21663;-76
2020/12/05 12:18:59;;;;;;;32.95;17.82;;;;;;;10.40;72.26;99373.90;1703782;84;21166;-76
2020/12/05 12:21:26;;;;;;;30.95;17.20;;;;;;;10.43;72.18;99378.33;1705234;84;21209;-76
2020/12/05 12:23:52;;;;;;;24.80;16.30;;;;;;;10.44;72.15;99374.66;1705176;82;21178;-76
2020/12/05 12:26:19;;;;;;;26.23;15.38;;;;;;;10.46;72.09;99379.78;1705309;84;21153;-76
2020/12/05 12:28:45;;;;;;;33.67;17.25;;;;;;;10.47;72.05;99374.27;1646945;85;21224;-76
2020/12/05 12:31:12;;;;;;;24.80;13.72;;;;;;;10.47;71.96;99375.59;1704998;84;21133;-76